Time;durP1;ratioP1;P1;durP2;ratioP2;P2;SDS_P1;SDS_P2;PMS_P1;PMS_P2;Temp;Humidity;BMP_temperature;BMP_pressure;BME280_temperature;BME280_humidity;BME280_pressure;Samples;Min_cycle;Max_cycle;Signal;HPM_P1;HPM_P2
2022/09/22 11:49:02;;;;;;;11.18;4.60;;;18.90;99.30;;;;;;6215304;23;20031;-82
2022/09/22 11:59:08;;;;;;;11.60;5.10;;;17.50;99.90;;;;;;6185471;23;20016;-82
2022/09/22 12:01:40;;;;;;;8.98;4.07;;;18.00;99.90;;;;;;6184186;23;20028;-81
2022/09/22 12:04:19;;;;;;;9.57;4.13;;;18.20;99.90;;;;;;6185212;23;20017;-81
2022/09/22 12:06:49;;;;;;;10.65;4.28;;;18.30;99.90;;;;;;6183699;23;20025;-81
2022/09/22 12:09:49;;;;;;;10.63;4.30;;;18.10;99.90;;;;;;6183609;23;20013;-81
2022/09/22 12:12:20;;;;;;;9.52;3.97;;;18.10;99.90;;;;;;6161394;23;20019;-81
2022/09/22 12:14:55;;;;;;;9.30;4.13;;;18.10;99.90;;;;;;6185491;23;20345;-81
2022/09/22 12:17:28;;;;;;;10.55;4.10;;;18.30;99.90;;;;;;6183752;23;20044;-81
2022/09/22 12:20:11;;;;;;;11.87;4.40;;;18.70;99.90;;;;;;6183990;23;20024;-82
2022/09/22 12:23:08;;;;;;;12.43;4.28;;;19.10;99.90;;;;;;6184060;23;20341;-82
2022/09/22 12:25:42;;;;;;;10.38;3.60;;;19.40;96.30;;;;;;6184722;23;20021;-81
2022/09/22 12:28:26;;;;;;;9.82;4.00;;;19.80;99.90;;;;;;6183382;23;20345;-81
2022/09/22 12:31:04;;;;;;;10.35;4.00;;;19.80;99.50;;;;;;6183941;23;20516;-82
2022/09/22 12:33:35;;;;;;;11.10;4.50;;;19.50;99.60;;;;;;6184257;23;20023;-81
2022/09/22 12:36:02;;;;;;;9.50;3.95;;;19.30;99.70;;;;;;6182668;23;20021;-82
2022/09/22 12:38:30;;;;;;;9.45;3.70;;;19.40;99.90;;;;;;6185090;23;20028;-81
2022/09/22 12:40:58;;;;;;;8.85;4.13;;;19.20;99.90;;;;;;6184616;23;20024;-81
2022/09/22 12:43:25;;;;;;;8.93;4.10;;;19.00;99.90;;;;;;6185202;23;20024;-81
2022/09/22 12:45:53;;;;;;;10.90;3.78;;;18.90;99.90;;;;;;6185127;23;20128;-81
2022/09/22 12:48:49;;;;;;;11.05;4.00;;;19.20;99.90;;;;;;6183230;23;20021;-81
2022/09/22 12:51:23;;;;;;;11.52;4.10;;;19.20;95.60;;;;;;6165269;23;20025;-81
2022/09/22 12:53:49;;;;;;;9.60;3.90;;;19.40;98.40;;;;;;6184531;23;20052;-81
2022/09/22 12:57:04;;;;;;;9.27;4.10;;;19.60;99.30;;;;;;6182961;23;20013;-81
2022/09/22 12:59:36;;;;;;;;;;;19.40;96.70;;;;;;6132323;23;20052;-81
2022/09/22 13:02:14;;;;;;;8.30;3.45;;;19.40;96.60;;;;;;6183597;23;19916;-82
2022/09/22 13:04:41;;;;;;;12.05;3.50;;;19.60;97.90;;;;;;6185851;23;20044;-81
2022/09/22 13:07:44;;;;;;;9.25;3.75;;;19.40;99.60;;;;;;6182079;23;20063;-82
2022/09/22 13:10:25;;;;;;;9.75;3.70;;;18.90;97.30;;;;;;6183449;23;20068;-81
2022/09/22 13:13:05;;;;;;;9.70;3.72;;;18.60;97.70;;;;;;6185433;23;20083;-81
2022/09/22 13:15:55;;;;;;;10.90;4.10;;;18.30;96.00;;;;;;6182884;23;20452;-81
2022/09/22 13:18:40;;;;;;;8.13;3.65;;;18.20;98.50;;;;;;6184020;23;20047;-82
2022/09/22 13:21:11;;;;;;;11.45;3.90;;;18.20;99.50;;;;;;6184491;23;20045;-81
2022/09/22 13:23:49;;;;;;;9.00;3.35;;;18.50;98.70;;;;;;6182627;23;20025;-80
2022/09/22 13:26:19;;;;;;;10.32;3.60;;;18.90;99.60;;;;;;6182750;23;20017;-81
2022/09/22 13:29:12;;;;;;;9.05;3.58;;;19.40;99.00;;;;;;6181640;23;20022;-81
2022/09/22 13:31:44;;;;;;;9.55;3.78;;;19.80;98.50;;;;;;6181388;23;20337;-81
2022/09/22 13:34:30;;;;;;;8.45;3.50;;;19.90;98.50;;;;;;6182686;23;20449;-81
2022/09/22 13:37:12;;;;;;;9.43;3.88;;;19.70;96.90;;;;;;6183933;23;20012;-81
2022/09/22 13:39:43;;;;;;;10.10;3.78;;;19.40;97.00;;;;;;6185366;23;20021;-81
2022/09/22 13:42:18;;;;;;;9.93;3.30;;;19.30;98.60;;;;;;6183724;23;20009;-81
2022/09/22 13:44:46;;;;;;;10.05;3.40;;;19.20;99.10;;;;;;6182807;23;20020;-81
2022/09/22 13:47:22;;;;;;;8.93;3.92;;;19.30;98.80;;;;;;6185141;23;20035;-81
2022/09/22 13:49:54;;;;;;;9.65;3.38;;;19.40;98.10;;;;;;6180259;23;20024;-81
2022/09/22 13:52:31;;;;;;;9.20;3.33;;;19.70;98.80;;;;;;6181611;23;20088;-81
2022/09/22 13:55:07;;;;;;;8.02;3.03;;;20.10;97.80;;;;;;6183918;23;20477;-81
2022/09/22 13:57:36;;;;;;;9.88;4.05;;;20.30;98.60;;;;;;6174647;23;20126;-81
2022/09/22 14:00:04;;;;;;;13.02;4.13;;;20.50;98.60;;;;;;6182257;23;20016;-81
2022/09/22 14:02:30;;;;;;;10.13;4.00;;;20.40;98.00;;;;;;6181100;23;20017;-82
2022/09/22 14:05:01;;;;;;;9.52;3.50;;;20.10;97.90;;;;;;6183223;23;20021;-81
2022/09/22 14:07:31;;;;;;;10.10;3.60;;;20.50;98.10;;;;;;6183326;23;20013;-83
2022/09/22 14:09:59;;;;;;;9.25;3.78;;;19.80;98.50;;;;;;6181661;23;20056;-83
2022/09/22 14:12:30;;;;;;;9.23;3.92;;;19.90;98.10;;;;;;6181135;23;20064;-83
2022/09/22 14:15:35;;;;;;;12.40;3.70;;;20.10;97.60;;;;;;6182341;23;20023;-83
2022/09/22 14:18:01;;;;;;;10.07;4.20;;;20.30;96.00;;;;;;6180644;23;20009;-83
2022/09/22 14:20:27;;;;;;;9.82;4.13;;;20.50;97.70;;;;;;6184735;23;20028;-83
2022/09/22 14:22:53;;;;;;;10.68;3.70;;;20.70;97.40;;;;;;6184373;23;20012;-83
2022/09/22 14:25:21;;;;;;;10.02;3.45;;;20.80;97.30;;;;;;6184004;23;20373;-82
2022/09/22 14:27:58;;;;;;;8.20;3.35;;;21.00;97.30;;;;;;6183679;23;20016;-82
2022/09/22 14:30:29;;;;;;;9.93;3.53;;;21.10;95.40;;;;;;6182897;23;20017;-83
2022/09/22 14:33:02;;;;;;;9.40;3.25;;;20.70;96.80;;;;;;6182767;23;20017;-83
2022/09/22 14:35:30;;;;;;;8.73;3.50;;;20.40;95.40;;;;;;6184277;23;20610;-82
2022/09/22 14:37:57;;;;;;;8.20;3.22;;;20.10;96.60;;;;;;6184430;23;20016;-82
2022/09/22 14:40:26;;;;;;;7.75;3.00;;;19.80;97.00;;;;;;6183921;23;20322;-83
2022/09/22 14:42:57;;;;;;;10.68;3.38;;;19.60;97.30;;;;;;6185614;23;20013;-82
2022/09/22 14:45:26;;;;;;;9.63;3.67;;;19.50;96.70;;;;;;6184070;23;20024;-83
2022/09/22 14:48:10;;;;;;;8.35;3.20;;;19.70;97.50;;;;;;6183511;23;20445;-83
2022/09/22 14:50:44;;;;;;;9.38;3.33;;;19.80;95.90;;;;;;6183162;23;20350;-82
2022/09/22 14:53:36;;;;;;;9.38;4.10;;;20.00;97.20;;;;;;6184093;23;20044;-82
2022/09/22 14:56:19;;;;;;;7.20;3.10;;;20.00;97.10;;;;;;6146839;23;20033;-80
2022/09/22 14:58:50;;;;;;;8.75;2.78;;;20.20;97.30;;;;;;6184786;23;20060;-81
2022/09/22 15:04:23;;;;;;;8.07;2.40;;;20.10;96.20;;;;;;6157559;23;20101;-81
2022/09/22 15:06:51;;;;;;;10.10;2.60;;;20.00;97.00;;;;;;6156938;23;20017;-81
2022/09/22 15:09:27;;;;;;;8.88;2.78;;;20.10;97.20;;;;;;6157240;23;20429;-81
2022/09/22 15:12:02;;;;;;;7.05;2.50;;;19.90;96.50;;;;;;6157934;23;20441;-81
2022/09/22 15:14:34;;;;;;;8.68;2.60;;;20.00;96.70;;;;;;6185664;23;20051;-81
2022/09/22 15:18:12;;;;;;;8.15;2.72;;;20.10;96.50;;;;;;6156889;23;20344;-81
2022/09/22 15:20:18;;;;;;;7.07;2.55;;;20.00;97.10;;;;;;6157440;23;20018;-81
2022/09/22 15:23:26;;;;;;;8.30;2.63;;;20.10;95.90;;;;;;6185344;23;20078;-80
2022/09/22 15:25:52;;;;;;;8.20;2.95;;;19.70;95.10;;;;;;6159589;23;20021;-82
2022/09/22 15:28:22;;;;;;;7.13;2.60;;;19.50;97.00;;;;;;6187676;23;20012;-82
2022/09/22 15:30:52;;;;;;;7.65;2.70;;;19.20;96.90;;;;;;6159924;23;20078;-82
2022/09/22 15:33:19;;;;;;;11.02;3.00;;;19.10;97.10;;;;;;6186552;23;20060;-82
2022/09/22 15:35:47;;;;;;;9.23;2.50;;;18.90;97.10;;;;;;6185933;23;20017;-82
2022/09/22 15:38:16;;;;;;;7.60;2.80;;;18.70;97.20;;;;;;6186119;23;20032;-82
2022/09/22 15:40:43;;;;;;;8.40;2.50;;;18.60;97.30;;;;;;6186787;23;20516;-82
2022/09/22 15:43:13;;;;;;;9.43;2.53;;;18.40;97.60;;;;;;6159154;23;20025;-82
2022/09/22 15:45:46;;;;;;;8.55;2.55;;;18.30;97.70;;;;;;6160255;23;20013;-82
2022/09/22 15:48:44;;;;;;;6.93;2.47;;;18.10;97.50;;;;;;6186180;23;20052;-81
2022/09/22 15:51:12;;;;;;;7.72;2.40;;;18.00;97.90;;;;;;6140755;23;20028;-84
2022/09/22 15:53:40;;;;;;;7.38;2.50;;;17.90;98.30;;;;;;6160078;23;20039;-86
2022/09/22 15:56:17;;;;;;;8.57;2.50;;;17.70;98.50;;;;;;6180241;23;20021;-91
2022/09/22 15:58:43;;;;;;;7.00;2.65;;;17.80;98.00;;;;;;6184780;23;20017;-82
2022/09/22 16:01:09;;;;;;;5.70;2.13;;;17.50;98.60;;;;;;6182459;23;20025;-81
2022/09/22 16:03:37;;;;;;;7.28;2.55;;;17.40;99.00;;;;;;6182637;23;20017;-82
2022/09/22 16:06:07;;;;;;;7.57;2.40;;;17.30;99.30;;;;;;6184779;23;20511;-82
2022/09/22 16:08:42;;;;;;;11.20;2.60;;;17.30;99.50;;;;;;6183563;23;20092;-82
2022/09/22 16:11:26;;;;;;;5.93;2.33;;;17.30;99.80;;;;;;6183423;23;20068;-83
2022/09/22 16:13:56;;;;;;;8.52;2.35;;;17.20;99.90;;;;;;6185395;23;20040;-82
2022/09/22 16:16:23;;;;;;;7.75;2.45;;;17.90;99.90;;;;;;6183992;23;20013;-82
2022/09/22 16:18:48;;;;;;;7.38;2.45;;;17.10;99.90;;;;;;6184957;23;20021;-82
2022/09/22 16:21:30;;;;;;;7.82;2.53;;;17.00;99.90;;;;;;6182823;23;20028;-82
2022/09/22 16:23:57;;;;;;;6.70;2.55;;;17.70;99.90;;;;;;6185033;23;20045;-82
2022/09/22 16:26:23;;;;;;;7.22;2.50;;;17.60;99.90;;;;;;6185294;23;20021;-82
2022/09/22 16:28:50;;;;;;;7.57;2.80;;;17.10;99.90;;;;;;6186229;23;20445;-82
2022/09/22 16:31:27;;;;;;;7.78;2.50;;;17.00;99.90;;;;;;6186370;23;20357;-82
2022/09/22 16:33:55;;;;;;;9.90;2.60;;;16.90;99.90;;;;;;6214128;23;20022;-82
2022/09/22 16:36:22;;;;;;;6.70;2.60;;;16.90;99.90;;;;;;6187608;23;20101;-82
2022/09/22 16:38:47;;;;;;;6.97;2.50;;;16.70;99.90;;;;;;6213906;23;20005;-82
2022/09/22 16:41:24;;;;;;;10.50;2.63;;;16.80;99.90;;;;;;6214370;23;20463;-82
2022/09/22 16:43:52;;;;;;;9.68;2.63;;;16.60;99.90;;;;;;6187934;23;20023;-82
2022/09/22 16:46:32;;;;;;;7.78;2.60;;;16.40;99.90;;;;;;6185748;23;20065;-82
2022/09/22 16:49:12;;;;;;;6.95;2.40;;;16.40;99.90;;;;;;6214820;23;20012;-82
2022/09/22 16:51:43;;;;;;;8.13;2.60;;;16.30;99.90;;;;;;6187474;23;20021;-82
2022/09/22 16:54:13;;;;;;;7.50;2.47;;;16.20;99.90;;;;;;6214358;23;20009;-82
2022/09/22 16:56:42;;;;;;;7.63;2.60;;;16.10;99.90;;;;;;6187821;23;20062;-82
2022/09/22 16:59:08;;;;;;;7.03;2.50;;;16.00;99.90;;;;;;6186486;23;20024;-82
2022/09/22 17:01:36;;;;;;;7.78;2.55;;;15.90;99.90;;;;;;6187448;23;20020;-82
2022/09/22 17:04:05;;;;;;;7.28;2.40;;;15.80;99.90;;;;;;6188793;23;20369;-82
2022/09/22 17:06:31;;;;;;;7.25;2.50;;;15.70;99.90;;;;;;6186692;23;20020;-82
2022/09/22 17:08:58;;;;;;;8.15;2.97;;;15.50;99.90;;;;;;6215103;23;20093;-83
2022/09/22 17:11:29;;;;;;;8.27;2.60;;;15.40;99.90;;;;;;6213522;23;20398;-82
2022/09/22 17:13:59;;;;;;;7.00;2.50;;;15.20;99.90;;;;;;6186812;23;20016;-82
2022/09/22 17:16:30;;;;;;;9.68;2.90;;;15.00;99.90;;;;;;6186953;23;20368;-82
2022/09/22 17:19:02;;;;;;;8.45;2.58;;;14.90;99.90;;;;;;6214222;23;20020;-82
2022/09/22 17:21:28;;;;;;;7.63;2.88;;;14.80;99.90;;;;;;6212900;23;20016;-81
2022/09/22 17:24:00;;;;;;;7.53;2.50;;;14.60;99.90;;;;;;6187767;23;20032;-82
2022/09/22 17:26:28;;;;;;;8.32;2.58;;;14.60;99.90;;;;;;6186774;23;20107;-82
2022/09/22 17:28:54;;;;;;;7.30;2.65;;;14.30;99.90;;;;;;6186339;23;20810;-82
2022/09/22 17:31:22;;;;;;;7.40;2.53;;;14.80;99.90;;;;;;6186887;23;20313;-81
2022/09/22 17:34:13;;;;;;;10.18;3.22;;;14.10;99.90;;;;;;6179958;22;20466;-81
2022/09/22 17:36:39;;;;;;;7.75;2.90;;;13.90;99.90;;;;;;6213794;23;20071;-83
2022/09/22 17:39:06;;;;;;;11.73;5.00;;;13.70;99.90;;;;;;6187811;23;20024;-82
2022/09/22 17:41:33;;;;;;;11.90;5.35;;;13.60;99.90;;;;;;6186639;23;20027;-82
2022/09/22 17:44:01;;;;;;;10.88;3.80;;;13.50;99.90;;;;;;6187366;23;20021;-83
2022/09/22 17:46:32;;;;;;;8.52;3.40;;;13.40;99.90;;;;;;6214313;23;20020;-82
2022/09/22 17:57:26;;;;;;;8.60;3.92;;;13.00;99.90;;;;;;6185544;23;20523;-81
2022/09/22 17:59:54;;;;;;;9.70;4.70;;;12.90;99.90;;;;;;6212127;23;20368;-81
2022/09/22 18:02:20;;;;;;;10.85;4.40;;;12.80;99.90;;;;;;6213266;23;20013;-82
2022/09/22 18:04:46;;;;;;;11.65;4.30;;;12.70;99.90;;;;;;6187286;23;20016;-81
2022/09/22 18:07:16;;;;;;;11.20;4.80;;;12.60;99.90;;;;;;6187373;23;20055;-82
2022/09/22 18:09:44;;;;;;;9.75;4.97;;;13.40;99.90;;;;;;6216135;23;20059;-81
2022/09/22 18:12:12;;;;;;;10.23;4.70;;;12.80;99.90;;;;;;6184668;23;20081;-82
2022/09/22 18:14:45;;;;;;;12.40;6.10;;;12.40;99.90;;;;;;6213853;23;20012;-82
2022/09/22 18:17:13;;;;;;;15.53;10.47;;;12.30;99.90;;;;;;6185708;23;20012;-82
2022/09/22 18:19:40;;;;;;;15.55;9.85;;;12.20;99.90;;;;;;6213931;23;20008;-82
2022/09/22 18:22:09;;;;;;;13.93;8.40;;;12.10;99.90;;;;;;6213151;23;20019;-82
2022/09/22 18:24:36;;;;;;;11.93;6.47;;;12.00;99.90;;;;;;6186332;23;20024;-82
2022/09/22 18:27:03;;;;;;;12.32;6.82;;;12.50;99.90;;;;;;6213692;23;20019;-82
2022/09/22 18:29:32;;;;;;;10.40;6.18;;;11.90;99.90;;;;;;6212509;23;20016;-82
2022/09/22 18:31:58;;;;;;;10.65;6.13;;;11.80;99.90;;;;;;6212845;23;20016;-82
2022/09/22 18:34:28;;;;;;;11.18;7.00;;;11.70;99.90;;;;;;6186521;23;20051;-82
2022/09/22 18:36:55;;;;;;;13.02;7.57;;;11.70;99.90;;;;;;6213654;23;20048;-82
2022/09/22 18:39:20;;;;;;;14.43;9.10;;;11.60;99.90;;;;;;6212336;23;20024;-83
2022/09/22 18:41:46;;;;;;;13.07;8.40;;;11.50;99.90;;;;;;6186132;23;20017;-82
2022/09/22 18:44:14;;;;;;;13.68;9.45;;;11.50;99.90;;;;;;6186214;23;20063;-83
2022/09/22 18:46:40;;;;;;;15.02;9.10;;;12.20;99.90;;;;;;6213342;23;20012;-82
2022/09/22 18:49:07;;;;;;;15.32;10.07;;;11.40;99.90;;;;;;6186003;23;20021;-83
2022/09/22 18:51:38;;;;;;;19.15;11.30;;;11.30;99.90;;;;;;6211867;23;20310;-82
2022/09/22 18:54:07;;;;;;;17.83;11.10;;;11.30;99.90;;;;;;6186828;23;20024;-82
2022/09/22 18:56:41;;;;;;;32.20;19.65;;;11.20;99.90;;;;;;6186232;23;20016;-83
2022/09/22 18:59:14;;;;;;;28.00;18.42;;;12.10;99.90;;;;;;6185914;23;20024;-82
2022/09/22 19:01:40;;;;;;;23.88;15.68;;;11.10;99.90;;;;;;6186507;23;20340;-82
2022/09/22 19:04:10;;;;;;;19.58;11.82;;;10.80;99.90;;;;;;6186211;23;20095;-82
2022/09/22 19:09:20;;;;;;;14.80;9.10;;;10.90;99.90;;;;;;6186398;23;20059;-83
2022/09/22 19:11:49;;;;;;;15.13;9.43;;;10.90;99.90;;;;;;6213640;23;20063;-83
2022/09/22 19:14:16;;;;;;;15.63;9.82;;;10.80;99.90;;;;;;6212438;23;20057;-83
2022/09/22 19:16:45;;;;;;;15.88;9.35;;;10.80;99.90;;;;;;6213929;23;20016;-83
2022/09/22 19:19:12;;;;;;;15.85;10.25;;;10.70;99.90;;;;;;6186579;23;20071;-83
2022/09/22 19:21:37;;;;;;;16.88;10.10;;;11.30;99.90;;;;;;6212738;23;20013;-83
2022/09/22 19:24:05;;;;;;;16.63;9.75;;;10.60;99.90;;;;;;6213207;23;20013;-83
2022/09/22 19:26:31;;;;;;;15.40;9.57;;;10.60;99.90;;;;;;6212480;23;20019;-83
2022/09/22 19:28:57;;;;;;;17.05;9.80;;;10.80;99.90;;;;;;6213637;23;20083;-83
2022/09/22 19:31:23;;;;;;;16.23;10.05;;;10.50;99.90;;;;;;6212819;23;20017;-83
2022/09/22 19:33:49;;;;;;;16.13;9.75;;;11.50;99.90;;;;;;6184955;23;20123;-83
2022/09/22 19:36:14;;;;;;;16.80;9.68;;;10.50;99.90;;;;;;6185470;23;20052;-82
2022/09/22 19:38:40;;;;;;;17.10;9.70;;;10.40;99.90;;;;;;6186330;23;20024;-83
2022/09/22 19:41:06;;;;;;;15.02;9.60;;;11.60;99.90;;;;;;6185135;23;20017;-83
2022/09/22 19:43:32;;;;;;;13.63;9.05;;;10.30;99.90;;;;;;6186421;23;20029;-82
2022/09/22 19:45:57;;;;;;;15.88;9.30;;;10.30;99.90;;;;;;6186729;23;20019;-83
2022/09/22 19:48:24;;;;;;;14.27;8.65;;;10.30;99.90;;;;;;6185519;23;20028;-83
2022/09/22 19:50:49;;;;;;;15.13;9.07;;;10.20;99.90;;;;;;6185896;23;20017;-83
2022/09/22 19:53:15;;;;;;;14.73;9.73;;;10.20;99.90;;;;;;6184875;23;20059;-83
2022/09/22 19:55:42;;;;;;;15.10;9.90;;;10.20;99.90;;;;;;6212142;23;20387;-83
2022/09/22 19:58:08;;;;;;;15.18;9.73;;;10.10;99.90;;;;;;6185826;23;20444;-83
2022/09/22 20:00:35;;;;;;;17.52;11.20;;;10.10;99.90;;;;;;6186026;23;20024;-83
2022/09/22 20:03:01;;;;;;;15.45;10.45;;;10.10;99.90;;;;;;6212750;23;20016;-83
2022/09/22 20:05:38;;;;;;;14.98;11.05;;;10.00;99.90;;;;;;6211242;22;20356;-83
2022/09/22 20:08:16;;;;;;;14.32;10.05;;;10.00;99.90;;;;;;6186735;23;20043;-83
2022/09/22 20:10:46;;;;;;;15.70;10.48;;;11.40;99.90;;;;;;6187296;23;20012;-83
2022/09/22 20:15:57;;;;;;;15.13;10.00;;;9.90;99.90;;;;;;6187244;23;20017;-82
2022/09/22 20:18:23;;;;;;;14.85;9.95;;;11.00;99.90;;;;;;6215007;23;20020;-82
2022/09/22 20:20:50;;;;;;;15.30;9.70;;;9.80;99.90;;;;;;6187669;23;20431;-83
2022/09/22 20:23:19;;;;;;;14.68;10.23;;;9.80;99.90;;;;;;6212975;23;20025;-82
2022/09/22 20:25:46;;;;;;;17.25;9.75;;;9.80;99.90;;;;;;6187397;23;20020;-83
2022/09/22 20:28:13;;;;;;;14.07;9.93;;;11.00;99.90;;;;;;6214306;23;20016;-83
2022/09/22 20:30:40;;;;;;;15.23;9.80;;;9.70;99.90;;;;;;6186743;23;20024;-83
2022/09/22 20:33:20;;;;;;;17.67;10.50;;;9.70;99.90;;;;;;6214895;23;20023;-83
2022/09/22 20:35:52;;;;;;;15.85;10.43;;;9.60;99.90;;;;;;6214460;23;20040;-84
2022/09/22 20:38:18;;;;;;;15.20;10.20;;;9.60;99.90;;;;;;6213640;23;20020;-83
2022/09/22 20:40:44;;;;;;;13.65;10.20;;;9.60;99.90;;;;;;6187846;23;20071;-84
2022/09/22 20:43:12;;;;;;;14.93;10.38;;;9.60;99.90;;;;;;6187111;23;20044;-84
2022/09/22 20:45:42;;;;;;;16.38;11.13;;;9.50;99.90;;;;;;6213897;23;20504;-84
2022/09/22 20:48:18;;;;;;;17.48;11.43;;;9.50;99.90;;;;;;6214096;23;20456;-81
2022/09/22 20:50:53;;;;;;;16.42;12.43;;;9.40;99.90;;;;;;6187685;23;20062;-83
2022/09/22 20:53:20;;;;;;;17.15;12.50;;;9.40;99.90;;;;;;6186992;23;20074;-83
2022/09/22 20:56:00;;;;;;;16.58;12.02;;;9.30;99.90;;;;;;6188128;23;20021;-83
2022/09/22 20:58:31;;;;;;;16.08;12.23;;;9.30;99.90;;;;;;6186219;23;20106;-82
2022/09/22 21:00:58;;;;;;;16.73;12.15;;;9.30;99.90;;;;;;6185495;23;20024;-82
2022/09/22 21:03:24;;;;;;;17.25;12.52;;;9.30;99.90;;;;;;6187570;23;20020;-82
2022/09/22 21:05:50;;;;;;;17.27;12.15;;;9.30;99.90;;;;;;6185846;23;20466;-82
2022/09/22 21:11:00;;;;;;;16.50;12.55;;;9.20;99.90;;;;;;6213200;23;20020;-82
2022/09/22 21:13:26;;;;;;;17.95;11.88;;;9.20;99.90;;;;;;6212513;23;20106;-82
2022/09/22 21:16:01;;;;;;;19.25;12.73;;;9.20;99.90;;;;;;6213533;23;20479;-82
2022/09/22 21:18:26;;;;;;;19.30;12.55;;;9.10;99.90;;;;;;6210718;23;20031;-82
2022/09/22 21:20:52;;;;;;;18.65;12.32;;;9.10;99.90;;;;;;6185510;23;20020;-82
2022/09/22 21:23:19;;;;;;;17.88;12.40;;;9.10;99.90;;;;;;6186795;23;20021;-82
2022/09/22 21:25:59;;;;;;;18.17;13.07;;;9.10;99.90;;;;;;6212609;23;20025;-82
2022/09/22 21:28:25;;;;;;;20.83;13.95;;;9.10;99.90;;;;;;6186409;23;20019;-82
2022/09/22 21:30:58;;;;;;;18.60;13.73;;;9.00;99.90;;;;;;6213508;23;20127;-82
2022/09/22 21:33:26;;;;;;;17.70;13.35;;;9.00;99.90;;;;;;6186300;23;20433;-82
2022/09/22 21:36:01;;;;;;;21.23;13.38;;;9.00;99.90;;;;;;6186182;23;20048;-82
2022/09/22 21:38:28;;;;;;;19.23;12.95;;;9.90;99.90;;;;;;6186406;23;20031;-82
2022/09/22 21:41:02;;;;;;;20.63;13.30;;;9.00;99.90;;;;;;6213217;23;20016;-82
2022/09/22 21:43:28;;;;;;;20.73;13.25;;;8.90;99.90;;;;;;6213601;23;20459;-82
2022/09/22 21:46:09;;;;;;;19.15;13.75;;;8.90;99.90;;;;;;6187159;23;20037;-82
2022/09/22 21:48:35;;;;;;;20.42;14.45;;;8.90;99.90;;;;;;6186245;23;20024;-82
2022/09/22 21:51:12;;;;;;;19.50;14.63;;;8.90;99.90;;;;;;6188512;23;20013;-82
2022/09/22 21:53:39;;;;;;;21.08;14.80;;;8.90;99.90;;;;;;6188225;23;20100;-84
2022/09/22 21:56:07;;;;;;;20.40;14.25;;;8.90;99.90;;;;;;6188351;23;20483;-82
2022/09/22 21:58:35;;;;;;;18.60;13.65;;;8.90;99.90;;;;;;6215670;23;20328;-82
2022/09/22 22:01:12;;;;;;;19.77;14.32;;;8.90;99.90;;;;;;6215241;23;20016;-82
2022/09/22 22:03:41;;;;;;;19.70;13.90;;;8.90;99.90;;;;;;6215285;23;20024;-82
2022/09/22 22:06:18;;;;;;;19.77;14.70;;;8.90;99.90;;;;;;6214981;23;20051;-82
2022/09/22 22:08:52;;;;;;;19.73;14.82;;;8.90;99.90;;;;;;6187825;23;20052;-82
2022/09/22 22:11:25;;;;;;;20.58;14.18;;;8.80;99.90;;;;;;6188356;23;20487;-82
2022/09/22 22:13:56;;;;;;;19.23;14.27;;;8.80;99.90;;;;;;6188249;23;20015;-82
2022/09/22 22:16:24;;;;;;;20.67;14.60;;;8.80;99.90;;;;;;6187915;23;20017;-82
2022/09/22 22:18:51;;;;;;;20.67;14.23;;;8.80;99.90;;;;;;6188785;23;20016;-82
2022/09/22 22:21:16;;;;;;;18.67;14.00;;;8.80;99.90;;;;;;6214555;23;20449;-83
2022/09/22 22:23:44;;;;;;;17.75;13.27;;;8.80;99.90;;;;;;6187932;23;20075;-82
2022/09/22 22:26:16;;;;;;;20.17;14.93;;;8.80;99.90;;;;;;6188485;23;20027;-82
2022/09/22 22:28:43;;;;;;;21.33;14.77;;;8.70;99.90;;;;;;6215154;23;20048;-82
2022/09/22 22:31:21;;;;;;;22.52;14.77;;;8.70;99.90;;;;;;6187055;23;20511;-82
2022/09/22 22:33:48;;;;;;;19.35;13.80;;;8.70;99.90;;;;;;6188340;23;20043;-82
2022/09/22 22:36:15;;;;;;;21.95;13.80;;;8.90;99.90;;;;;;6187980;23;20009;-82
2022/09/22 22:38:43;;;;;;;20.48;14.48;;;8.70;99.90;;;;;;6187948;23;20012;-82
2022/09/22 22:41:09;;;;;;;20.08;13.65;;;9.80;99.90;;;;;;6188270;23;20020;-82
2022/09/22 22:43:36;;;;;;;21.15;13.80;;;8.70;99.90;;;;;;6187777;23;20055;-82
2022/09/22 22:46:03;;;;;;;20.05;13.90;;;8.70;99.90;;;;;;6188437;23;20020;-82
2022/09/22 22:48:34;;;;;;;19.75;13.93;;;8.70;99.90;;;;;;6188331;23;20340;-82
2022/09/22 22:51:10;;;;;;;19.02;13.98;;;8.60;99.90;;;;;;6187318;23;20013;-82
2022/09/22 22:53:36;;;;;;;19.70;14.20;;;8.60;99.90;;;;;;6188378;23;20049;-82
2022/09/22 22:56:04;;;;;;;19.42;13.80;;;8.60;99.90;;;;;;6188050;23;20032;-82
2022/09/22 22:58:33;;;;;;;18.65;13.40;;;8.60;99.90;;;;;;6188193;23;20019;-82
2022/09/22 23:01:20;;;;;;;21.15;15.23;;;9.00;99.90;;;;;;6190709;23;20028;-82
2022/09/22 23:04:01;;;;;;;18.25;13.45;;;8.60;99.90;;;;;;6188122;23;20017;-82
2022/09/22 23:06:30;;;;;;;18.38;13.60;;;8.60;99.90;;;;;;6187194;23;20120;-82
2022/09/22 23:08:56;;;;;;;19.52;13.55;;;8.50;99.90;;;;;;6188389;23;20019;-82
2022/09/22 23:11:28;;;;;;;18.80;13.77;;;8.50;99.90;;;;;;6214391;23;20456;-82
2022/09/22 23:14:02;;;;;;;16.77;13.32;;;8.50;99.90;;;;;;6214689;23;20052;-82
2022/09/22 23:16:36;;;;;;;18.88;13.10;;;8.50;99.90;;;;;;6187666;23;20451;-82
2022/09/22 23:19:06;;;;;;;20.30;14.45;;;8.50;99.90;;;;;;6214298;23;20023;-82
2022/09/22 23:21:33;;;;;;;20.60;14.55;;;8.40;99.90;;;;;;6188045;23;20418;-82
2022/09/22 23:24:02;;;;;;;18.15;14.10;;;8.40;99.90;;;;;;6214595;23;20044;-82
2022/09/22 23:26:28;;;;;;;19.30;13.77;;;8.40;99.90;;;;;;6214007;23;20169;-82
2022/09/22 23:28:54;;;;;;;19.95;14.15;;;8.40;99.90;;;;;;6188238;23;20024;-82
2022/09/22 23:31:20;;;;;;;20.13;13.88;;;8.40;99.90;;;;;;6214332;23;20013;-82
2022/09/22 23:33:48;;;;;;;19.15;14.13;;;8.40;99.90;;;;;;6187364;23;20067;-82
2022/09/22 23:36:21;;;;;;;19.90;13.73;;;8.40;99.90;;;;;;6214461;23;20017;-82
2022/09/22 23:38:51;;;;;;;18.85;13.80;;;8.40;99.90;;;;;;6214732;23;20090;-82
2022/09/22 23:41:17;;;;;;;18.08;12.88;;;9.20;99.90;;;;;;6187206;23;20016;-82
2022/09/22 23:43:42;;;;;;;17.95;13.60;;;8.40;99.90;;;;;;6188983;23;20017;-82
2022/09/22 23:46:08;;;;;;;17.85;13.43;;;8.40;99.90;;;;;;6189166;23;20027;-82
2022/09/22 23:48:34;;;;;;;17.55;13.43;;;8.40;99.90;;;;;;6189451;23;20460;-82
2022/09/22 23:55:01;;;;;;;19.15;14.32;;;8.50;99.90;;;;;;6185725;23;20028;-82
2022/09/22 23:57:27;;;;;;;18.23;12.93;;;8.30;99.90;;;;;;6184777;23;20025;-82
2022/09/22 23:59:52;;;;;;;17.35;13.57;;;8.30;99.90;;;;;;6184553;23;20156;-82
